François Lagadeuc

François Lagadeuc

Statistiques 2026

  • Courses courues : 312
  • Nb de victoires : 46
  • Nb de places : 86
  • Écart gagnant : 3
  • Réussite à la gagne : 15%
  • Réussite à la place : 28%
Musique : 3a 2a 8a 1a 8a 1a 5m Da 8a Da 4a 6a Da 2a 0a Da 5m 1a
DateRangCatégorieAlloc.Dist.HippodromeChevalRed. KmSpé.
28/10/18 6 Trot 13 000€ 2 825m Vire Fais Moi Signe 1'21"1 Attelé
07/09/18 9 Trot 20 000€ 2 825m Vire Emeraude de l'Inam 1'21"8 Monté
26/09/18 0 Trot 22 000€ 2 825m Vire Day Lou Ly Attelé lire

N'a pu que figurer au sein du peloton.

26/09/18 D Trot 21 000€ 2 850m Vire Elite Turgot Attelé lire

A rejoint les animatrices aux tribunes, puis a pris le galop à la sortie du tournant final.

26/09/18 D Trot 35 000€ 2 800m Vire Doria Raudiere Monté lire

Vite en bonne place, était quatrième au moment de sa faute pour finir.

07/09/18 0 Trot 22 000€ 2 825m Vire Cash Mali Attelé
26/09/18 4 Trot 30 000€ 2 825m Vire Alto Mona 1'16"9 Attelé lire

Longtemps au sein du peloton, a donné un très bon coup de reins dans la phase finale.

26/09/18 3 Trot 90 000€ 2 800m Vire Abydos du Vivier 1'14"5 Attelé lire

Après avoir figuré, a progressé dans le tournant final, se défendant bien ensuite.

12/06/14 1 Trot 21 000€ 2 800m Vire Volcane Melric 1'18"7 Attelé lire

Très vite en troisième position, a pris le meilleur à la sortie du tournant final, puis s'est détachée et a vécu ensuite jusqu'au bout sur son avance.

12/06/14 D Trot 21 000€ 2 800m Vire Virgin des Essarts Monté lire

A rapidement été sanctionné.

26/09/12 D Trot 20 000€ 2 825m Vire Urfa d'Essarts Attelé lire

A été sanctionnée dans le premier tournant.

20/04/14 2 Trot 11 000€ 2 225m Vire Be Seven 1'20"7 Monté
20/02/13 D Trot 20 000€ 2 225m Vire Vino Star Monté
20/02/13 D Trot 20 000€ 2 825m Vire Terra Amata Monté
31/03/13 3 Trot 11 000€ 2 225m Vire Ars En Re 1'20"4 Monté
15/04/13 5 Trot 21 000€ 2 800m Vire Volcane Melric 1'18"9 Attelé
15/04/13 D Trot 22 000€ 2 825m Vire Urfa d'Essarts Attelé
21/02/18 3 Trot 21 000€ 2 825m Vire Cresta Rossa 1'15"8 Attelé
18/02/18 3 Trot 13 000€ 2 825m Vire Dryadella 1'18"4 Attelé
18/02/18 3 Trot 13 000€ 2 800m Vire Espoir du Bleuet 1'19"0 Attelé
18/02/18 D Trot 13 000€ 2 800m Vire Fougere Attelé
01/07/17 D Trot 22 000€ 2 825m Vire Albertains Monté
01/07/17 3 Trot 19 000€ 2 825m Vire Daisy Turgot 1'18"9 Attelé
22/10/17 D Trot 22 000€ 2 825m Vire Carly Attelé
22/10/17 2 Trot 20 000€ 2 800m Vire Dalila Melody 1'17"6 Attelé
10/11/19 6 Trot 13 000€ 2 850m Vire Feline de Janville 1'19"5 Attelé
10/11/19 0 Trot 13 000€ 2 850m Vire Flohertia Attelé
10/11/19 8 Trot 13 000€ 2 825m Vire First Gema 1'18"6 Attelé
10/11/19 D Trot 13 000€ 2 825m Vire Guest Of Quick Attelé
10/11/19 3 Trot 13 000€ 2 825m Vire Grande Campo 1'17"4 Attelé
27/10/19 3 Trot 13 000€ 2 825m Vire Flash Mac de Couet 1'17"9 Attelé
27/10/19 D Trot 13 000€ 2 825m Vire First Best Attelé
27/10/19 9 Trot 15 000€ 2 825m Vire Et Voila Quick 1'16"5 Attelé
27/10/19 6 Trot 13 000€ 2 825m Vire Flagstaff 1'17"2 Attelé
27/10/19 D Trot 13 000€ 2 825m Vire Fille de Pail Attelé
27/10/19 9 Trot 13 000€ 2 825m Vire Gaffeur de Ginai 1'20"2 Attelé
27/10/19 D Trot 13 000€ 2 825m Vire Gabo Quick Attelé
19/02/20 7 Trot 19 000€ 2 825m Vire Danova du Chene 1'17"6 Attelé
19/02/20 D Trot 17 000€ 2 850m Vire Fandor Attelé
19/02/20 D Trot 17 000€ 2 700m Vire Gentleman Valiere Attelé
19/02/20 1 Trot 16 000€ 2 700m Vire Hove Pont Vautier 1'16"7 Attelé
02/07/16 4 Trot 20 000€ 2 800m Vire Belle de Firfol 1'19"5 Monté
02/07/16 7 Trot 22 000€ 2 825m Vire Upsalin des Bosc 1'18"8 Monté
13/04/15 D Trot 33 000€ 2 800m Vire Urfa d'Essarts Attelé
27/06/15 D Trot 19 000€ 2 800m Vire Balioka Sport Attelé
27/06/15 D Trot 22 000€ 2 825m Vire Ardelot Monté
27/06/15 8 Trot 28 000€ 2 150m Vire Tempo Boy 1'15"7 Attelé
24/04/16 4 Mixte 11 000€ 2 225m Vire Diva Cade 1'19"9 Attelé
24/04/16 7 Mixte 15 000€ 2 825m Vire Carmen d'Attaque 1'19"3 Attelé
17/02/19 8 Trot 11 000€ 2 825m Vire Gondole Guerchaise 1'20"9 Attelé